Hundvaag 1 weather for Jul 2001
Month no. 169
Obs.
Da.
Temp. Dew Point Precip. Wind
Speed
Wind gusts Cloud cover Press. Humidity Wind dir. Sunny OPT
01.07.2001 13,7   1,3     0 1013,6        
02.07.2001 12,7   0,1     2 1019,7     1  
03.07.2001 15,7   0,0     0 1018,8     1  
04.07.2001 16,0   0,1     10 1016,8     1  
05.07.2001 15,5   0,0     10 1016,0     1  
06.07.2001 16,0   0,0     10 1014,4     1  
07.07.2001 15,7   0,0     10 1008,8     1  
08.07.2001 18,5   4,4     2 1006,5     1  
09.07.2001 17,2   10,3     0 1005,2        
10.07.2001 14,4   0,8     3 1008,8     1  
11.07.2001 14,5   16,3     0 1000,0        
12.07.2001 11,8   4,0     0 1001,1     1  
13.07.2001 14,1   9,2     7 1002,0     1  
14.07.2001 16,2   2,0     1 1007,9     1  
15.07.2001 13,8   2,7     4 1008,4        
16.07.2001 12,5   2,9     3 1014,5        
17.07.2001 10,2   0,0     8 1013,5     1  
18.07.2001 9,8   0,0     7 1013,9     1  
19.07.2001 11,8   0,7     5 1015,7        
20.07.2001 13,6   0,0     7 1015,2     1  
21.07.2001 13,9   0,0     4 1014,3        
22.07.2001 14,2   1,2     3 1016,4        
23.07.2001 14,6   4,5     5 1016,8        
24.07.2001 14,3   0,0     7 1014,3     1  
25.07.2001 13,5   11,8     6 1014,4        
26.07.2001 11,7   0,0     10 1014,3     1  
27.07.2001 12,0   0,0     10 1014,7     1  
28.07.2001 12,9   0,0     10 1016,1     1  
29.07.2001 14,0   0,0     8 1014,7     1  
30.07.2001 14,8   3,2     5 1013,1        
31.07.2001 15,0   3,9     7 1014,7     1  
Avrg/Sum 14,0   79,4     5,3 1012,4     20